createdAt,value
2023-04-18T00:01:26.392Z,13.60
2023-04-18T00:03:53.711Z,15.25
2023-04-18T00:06:22.265Z,9.32
2023-04-18T00:08:49.262Z,17.98
2023-04-18T00:11:16.206Z,10.35
2023-04-18T00:13:43.108Z,13.90
2023-04-18T00:16:10.100Z,11.77
2023-04-18T00:18:37.153Z,11.95
2023-04-18T00:21:04.539Z,11.35
2023-04-18T00:23:33.586Z,13.25
2023-04-18T00:26:00.906Z,10.70
2023-04-18T00:28:28.239Z,14.10
2023-04-18T00:30:55.106Z,13.27
2023-04-18T00:33:22.003Z,11.93
2023-04-18T00:35:48.867Z,10.25
2023-04-18T00:38:15.680Z,16.20
2023-04-18T00:40:42.947Z,19.85
2023-04-18T00:43:09.770Z,13.20
2023-04-18T00:45:37.045Z,11.32
2023-04-18T00:48:04.050Z,15.57
2023-04-18T00:50:31.592Z,14.55
2023-04-18T00:52:58.802Z,18.52
2023-04-18T00:55:25.902Z,13.65
2023-04-18T00:57:52.794Z,11.85
2023-04-18T01:00:19.767Z,17.45
2023-04-18T01:02:47.876Z,17.70
2023-04-18T01:05:14.974Z,16.73
2023-04-18T01:07:42.013Z,13.23
2023-04-18T01:10:10.640Z,16.33
2023-04-18T01:12:40.054Z,14.82
2023-04-18T01:15:08.185Z,13.13
2023-04-18T01:17:35.544Z,11.93
2023-04-18T01:20:04.942Z,15.50
2023-04-18T01:22:34.199Z,13.75
2023-04-18T01:25:06.085Z,15.55
2023-04-18T01:27:33.152Z,11.45
2023-04-18T01:30:00.054Z,14.02
2023-04-18T01:32:26.944Z,15.30
2023-04-18T01:34:53.863Z,13.90
2023-04-18T01:37:20.744Z,15.13
2023-04-18T01:39:48.201Z,21.20
2023-04-18T01:42:14.992Z,12.52
2023-04-18T01:44:42.062Z,20.63
2023-04-18T01:47:08.946Z,17.10
2023-04-18T01:49:35.821Z,12.65
2023-04-18T01:52:02.610Z,15.20
2023-04-18T01:54:29.598Z,18.85
2023-04-18T01:56:56.430Z,14.93
2023-04-18T01:59:23.229Z,15.63
2023-04-18T02:01:50.367Z,14.30
2023-04-18T02:04:17.463Z,16.17
2023-04-18T02:06:44.518Z,13.00
2023-04-18T02:09:11.540Z,18.80
2023-04-18T02:11:38.348Z,18.27
2023-04-18T02:14:06.001Z,12.20
2023-04-18T02:16:33.045Z,12.13
2023-04-18T02:19:04.452Z,18.08
2023-04-18T02:21:31.324Z,11.77
2023-04-18T02:23:58.122Z,14.48
2023-04-18T02:26:25.248Z,16.35
2023-04-18T02:28:52.076Z,12.65
2023-04-18T02:31:19.034Z,13.57
2023-04-18T02:33:47.923Z,18.33
2023-04-18T02:36:14.962Z,18.02
2023-04-18T02:38:41.736Z,13.45
2023-04-18T02:41:08.624Z,13.80
2023-04-18T02:43:35.509Z,18.23
2023-04-18T02:46:02.408Z,13.00
2023-04-18T02:48:29.220Z,16.00
2023-04-18T02:51:05.003Z,16.83
2023-04-18T02:53:32.109Z,16.92
2023-04-18T02:55:59.304Z,13.20
2023-04-18T02:58:26.372Z,16.35
2023-04-18T03:00:54.662Z,15.43
2023-04-18T03:03:21.892Z,14.50
2023-04-18T03:05:48.879Z,19.98
2023-04-18T03:08:16.260Z,14.30
2023-04-18T03:10:43.139Z,15.30
2023-04-18T03:13:09.950Z,17.35
2023-04-18T03:15:37.595Z,14.70
2023-04-18T03:18:05.863Z,15.07
2023-04-18T03:20:32.686Z,14.80
2023-04-18T03:22:59.550Z,20.95
2023-04-18T03:25:26.432Z,17.40
2023-04-18T03:27:53.291Z,18.17
2023-04-18T03:30:20.792Z,15.02
2023-04-18T03:32:49.025Z,19.42
2023-04-18T03:35:16.054Z,15.00
2023-04-18T03:37:42.994Z,16.60
2023-04-18T03:40:10.464Z,14.65
2023-04-18T03:42:37.313Z,18.95
2023-04-18T03:45:04.607Z,17.00
2023-04-18T03:47:32.042Z,15.75
2023-04-18T03:49:58.936Z,11.50
2023-04-18T03:52:27.005Z,12.00
2023-04-18T03:54:54.806Z,16.80
2023-04-18T03:57:21.702Z,17.13
2023-04-18T03:59:48.588Z,16.67
2023-04-18T04:02:15.998Z,15.23
2023-04-18T04:04:43.187Z,13.90
2023-04-18T04:07:10.146Z,15.13
2023-04-18T04:09:36.981Z,14.30
2023-04-18T04:12:03.954Z,20.40
2023-04-18T04:14:30.935Z,15.27
2023-04-18T04:16:57.753Z,13.80
2023-04-18T04:19:24.592Z,14.20
2023-04-18T04:21:51.496Z,17.92
2023-04-18T04:24:18.614Z,14.57
2023-04-18T04:26:47.807Z,17.60
2023-04-18T04:29:16.376Z,18.90
2023-04-18T04:31:43.766Z,16.35
2023-04-18T04:34:10.664Z,21.73
2023-04-18T04:36:37.740Z,17.85
2023-04-18T04:39:05.354Z,18.73
2023-04-18T04:41:32.268Z,20.20
2023-04-18T04:43:59.648Z,17.65
2023-04-18T04:46:29.354Z,19.17
2023-04-18T04:48:56.918Z,21.35
2023-04-18T04:51:23.995Z,18.88
2023-04-18T04:53:50.976Z,19.90
2023-04-18T04:56:18.325Z,32.78
2023-04-18T04:58:45.320Z,17.33
2023-04-18T05:01:12.969Z,19.23
2023-04-18T05:03:40.036Z,16.58
2023-04-18T05:06:07.078Z,17.38
2023-04-18T05:08:33.973Z,19.55
2023-04-18T05:11:02.201Z,20.58
2023-04-18T05:13:28.995Z,20.40
2023-04-18T05:15:56.713Z,19.35
2023-04-18T05:18:23.503Z,18.10
2023-04-18T05:20:50.477Z,19.55
2023-04-18T05:23:17.686Z,17.05
2023-04-18T05:25:44.590Z,17.70
2023-04-18T05:28:11.485Z,16.88
2023-04-18T05:30:39.476Z,22.23
2023-04-18T05:33:06.372Z,18.33
2023-04-18T05:35:33.348Z,21.88
2023-04-18T05:38:00.436Z,19.58
2023-04-18T05:40:30.419Z,18.33
2023-04-18T05:42:57.260Z,20.35
2023-04-18T05:45:24.333Z,22.25
2023-04-18T05:47:51.250Z,18.50
2023-04-18T05:50:18.144Z,18.60
2023-04-18T05:52:44.965Z,20.35
2023-04-18T05:55:11.871Z,20.40
2023-04-18T05:57:38.701Z,24.15
2023-04-18T06:00:11.681Z,16.80
2023-04-18T06:02:38.684Z,23.38
2023-04-18T06:05:06.518Z,20.85
2023-04-18T06:07:33.537Z,20.25
2023-04-18T06:10:00.489Z,19.83
2023-04-18T06:12:27.283Z,18.05
2023-04-18T06:14:54.132Z,18.20
2023-04-18T06:17:21.860Z,20.73
2023-04-18T06:19:48.949Z,23.98
2023-04-18T06:22:15.860Z,20.38
2023-04-18T06:24:42.706Z,19.80
2023-04-18T06:27:20.424Z,19.10
2023-04-18T06:29:51.160Z,21.77
2023-04-18T06:32:18.136Z,15.10
2023-04-18T06:34:44.921Z,17.45
2023-04-18T06:37:12.238Z,18.17
2023-04-18T06:39:39.064Z,21.35
2023-04-18T06:42:06.115Z,21.13
2023-04-18T06:44:33.056Z,20.17
2023-04-18T06:46:59.950Z,18.23
2023-04-18T06:49:27.215Z,20.20
2023-04-18T06:51:54.106Z,23.67
2023-04-18T06:54:21.185Z,19.52
2023-04-18T06:56:48.086Z,14.43
2023-04-18T06:59:15.069Z,18.42
2023-04-18T07:01:44.709Z,18.92
2023-04-18T07:04:11.880Z,16.02
2023-04-18T07:06:38.880Z,15.90
2023-04-18T07:09:05.773Z,14.63
2023-04-18T07:11:33.039Z,13.65
2023-04-18T07:13:59.916Z,14.93
2023-04-18T07:16:26.892Z,15.05
2023-04-18T07:18:53.784Z,13.48
2023-04-18T07:21:20.796Z,13.75
2023-04-18T07:23:47.783Z,15.75
2023-04-18T07:26:14.773Z,18.15
2023-04-18T07:28:41.919Z,13.43
2023-04-18T07:31:11.536Z,14.23
2023-04-18T07:33:38.933Z,13.18
2023-04-18T07:36:06.349Z,12.93
2023-04-18T07:38:35.324Z,12.20
2023-04-18T07:41:02.774Z,14.98
2023-04-18T07:43:29.912Z,23.75
2023-04-18T07:45:56.758Z,14.60
2023-04-18T07:48:25.167Z,16.65
2023-04-18T07:50:52.117Z,15.65
2023-04-18T07:53:19.108Z,13.00
2023-04-18T07:55:46.793Z,16.60
2023-04-18T07:58:14.018Z,13.48
2023-04-18T08:00:42.728Z,13.82
2023-04-18T08:03:11.261Z,12.27
2023-04-18T08:05:39.414Z,14.80
2023-04-18T08:08:07.840Z,15.70
2023-04-18T08:10:35.559Z,16.90
2023-04-18T08:13:02.824Z,16.88
2023-04-18T08:15:34.252Z,17.88
2023-04-18T08:18:01.358Z,15.43
2023-04-18T08:20:28.388Z,16.98
2023-04-18T08:25:25.471Z,13.35
2023-04-18T08:27:52.325Z,20.02
2023-04-18T08:30:19.374Z,15.25
2023-04-18T08:32:46.417Z,13.98
2023-04-18T08:35:13.407Z,17.58
2023-04-18T08:37:40.281Z,15.68
2023-04-18T08:40:07.717Z,19.83
2023-04-18T08:42:35.751Z,16.25
2023-04-18T08:45:04.270Z,18.40
2023-04-18T08:47:31.560Z,15.38
2023-04-18T08:50:01.139Z,17.38
2023-04-18T08:52:30.648Z,18.10
2023-04-18T08:54:57.520Z,13.80
2023-04-18T08:57:26.861Z,14.10
2023-04-18T08:59:54.501Z,16.15
2023-04-18T09:02:23.287Z,14.73
2023-04-18T09:04:53.393Z,15.68
2023-04-18T09:07:28.722Z,14.48
2023-04-18T09:09:57.384Z,20.13
2023-04-18T09:12:29.410Z,15.10
2023-04-18T09:15:17.424Z,15.48
2023-04-18T09:17:56.584Z,14.93
2023-04-18T09:20:41.453Z,15.35
2023-04-18T09:23:16.746Z,16.23
2023-04-18T09:25:46.987Z,15.38
2023-04-18T09:28:33.443Z,14.98
2023-04-18T09:31:15.480Z,21.17
2023-04-18T09:33:52.808Z,14.57
2023-04-18T09:36:23.866Z,17.73
2023-04-18T09:38:55.335Z,14.30
2023-04-18T09:41:23.632Z,15.85
2023-04-18T09:43:52.166Z,17.42
2023-04-18T09:46:19.178Z,15.68
2023-04-18T09:48:46.015Z,12.63
2023-04-18T09:51:16.820Z,12.57
2023-04-18T09:53:47.450Z,12.90
2023-04-18T09:56:37.263Z,10.63
2023-04-18T09:59:09.261Z,15.80
2023-04-18T10:01:36.740Z,12.02
2023-04-18T10:04:06.789Z,15.30
2023-04-18T10:06:34.986Z,20.30
2023-04-18T10:09:04.481Z,13.63
2023-04-18T10:11:32.242Z,14.20
2023-04-18T10:14:03.426Z,12.63
2023-04-18T10:16:32.511Z,14.05
2023-04-18T10:19:24.682Z,13.95
2023-04-18T10:21:56.347Z,12.70
2023-04-18T10:24:56.093Z,17.80
2023-04-18T10:27:49.155Z,13.80
2023-04-18T10:30:16.719Z,13.05
2023-04-18T10:32:45.474Z,11.68
2023-04-18T10:35:12.476Z,10.95
2023-04-18T10:37:52.628Z,10.32
2023-04-18T10:40:34.064Z,12.73
2023-04-18T10:43:01.355Z,11.75
2023-04-18T10:45:31.012Z,9.52
2023-04-18T10:48:29.748Z,13.55
2023-04-18T10:51:17.103Z,10.45
2023-04-18T10:53:57.681Z,12.90
2023-04-18T10:56:26.119Z,11.07
2023-04-18T10:58:53.388Z,25.13
2023-04-18T11:01:32.734Z,10.57
2023-04-18T11:04:01.160Z,12.63
2023-04-18T11:06:29.074Z,10.68
2023-04-18T11:09:13.721Z,11.02
2023-04-18T11:11:41.722Z,10.80
2023-04-18T11:14:08.980Z,13.05
2023-04-18T11:16:36.409Z,10.00
2023-04-18T11:19:23.729Z,10.85
2023-04-18T11:21:51.756Z,10.00
2023-04-18T11:24:23.843Z,9.30
2023-04-18T11:26:53.593Z,10.57
2023-04-18T11:29:20.484Z,10.90
2023-04-18T11:31:53.668Z,11.18
2023-04-18T11:34:28.292Z,10.48
2023-04-18T11:36:55.929Z,9.63
2023-04-18T11:39:23.324Z,8.75
2023-04-18T11:41:50.739Z,9.40
2023-04-18T11:44:18.782Z,12.68
2023-04-18T11:46:47.683Z,11.50
2023-04-18T11:49:28.507Z,9.65
2023-04-18T11:51:55.834Z,9.13
2023-04-18T11:54:40.097Z,8.48
2023-04-18T11:57:21.101Z,10.20
2023-04-18T11:59:51.968Z,10.48
2023-04-18T12:02:19.659Z,12.75
2023-04-18T12:05:05.716Z,11.77
2023-04-18T12:07:44.148Z,11.45
2023-04-18T12:10:20.569Z,11.75
2023-04-18T12:12:52.356Z,8.45
2023-04-18T12:15:21.917Z,10.70
2023-04-18T12:17:48.832Z,8.60
2023-04-18T12:20:16.121Z,7.22
2023-04-18T12:22:49.544Z,11.95
2023-04-18T12:25:27.440Z,11.15
2023-04-18T12:28:18.607Z,11.00
2023-04-18T12:30:45.437Z,9.48
2023-04-18T12:33:12.514Z,9.05
2023-04-18T12:35:39.346Z,9.30
2023-04-18T12:38:06.535Z,8.30
2023-04-18T12:40:33.467Z,10.60
2023-04-18T12:43:02.964Z,9.90
2023-04-18T12:45:30.617Z,9.82
2023-04-18T12:47:57.441Z,7.72
2023-04-18T12:50:26.827Z,9.00
2023-04-18T12:52:55.649Z,9.80
2023-04-18T12:55:25.259Z,6.00
2023-04-18T12:57:55.900Z,7.32
2023-04-18T13:00:25.611Z,6.32
2023-04-18T13:02:52.950Z,5.07
2023-04-18T13:05:22.216Z,8.85
2023-04-18T13:07:49.789Z,7.45
2023-04-18T13:10:21.594Z,5.50
2023-04-18T13:12:49.911Z,4.50
2023-04-18T13:15:17.413Z,4.75
2023-04-18T13:17:44.767Z,6.53
2023-04-18T13:20:15.396Z,6.63
2023-04-18T13:22:42.977Z,3.75
2023-04-18T13:25:10.803Z,5.45
2023-04-18T13:27:41.400Z,7.22
2023-04-18T13:30:10.666Z,3.72
2023-04-18T13:32:39.250Z,3.58
2023-04-18T13:35:09.162Z,8.48
2023-04-18T13:37:39.524Z,5.03
2023-04-18T13:40:07.117Z,3.83
2023-04-18T13:42:35.666Z,3.40
2023-04-18T13:45:06.101Z,5.35
2023-04-18T13:47:33.030Z,5.20
2023-04-18T13:49:59.974Z,5.20
2023-04-18T13:52:26.823Z,3.47
2023-04-18T13:54:53.712Z,2.70
2023-04-18T13:57:20.920Z,2.67
2023-04-18T13:59:47.842Z,2.13
2023-04-18T14:02:16.128Z,2.38
2023-04-18T14:04:43.259Z,1.70
2023-04-18T14:07:10.654Z,2.47
2023-04-18T14:09:37.645Z,3.97
2023-04-18T14:12:04.837Z,5.15
2023-04-18T14:14:31.775Z,3.72
2023-04-18T14:16:58.696Z,4.80
2023-04-18T14:19:26.529Z,3.80
2023-04-18T14:21:53.323Z,4.90
2023-04-18T14:24:20.277Z,4.88
2023-04-18T14:26:47.929Z,4.90
2023-04-18T14:29:15.107Z,4.55
2023-04-18T14:31:42.288Z,6.18
2023-04-18T14:34:09.801Z,5.43
2023-04-18T14:36:37.003Z,4.65
2023-04-18T14:39:04.866Z,6.03
2023-04-18T14:41:31.885Z,8.68
2023-04-18T14:43:59.544Z,5.70
2023-04-18T14:46:28.250Z,5.82
2023-04-18T14:48:55.300Z,7.95
2023-04-18T14:51:22.852Z,5.53
2023-04-18T14:53:49.795Z,9.13
2023-04-18T14:56:20.986Z,5.18
2023-04-18T14:58:48.094Z,6.72
2023-04-18T15:01:17.595Z,7.75
2023-04-18T15:03:45.581Z,8.15
2023-04-18T15:06:12.689Z,6.70
2023-04-18T15:08:39.645Z,6.28
2023-04-18T15:11:07.660Z,8.30
2023-04-18T15:13:34.627Z,7.57
2023-04-18T15:16:01.853Z,7.05
2023-04-18T15:18:29.062Z,5.82
2023-04-18T15:20:57.091Z,7.88
2023-04-18T15:23:24.144Z,7.28
2023-04-18T15:25:50.952Z,6.70
2023-04-18T15:28:18.709Z,6.32
2023-04-18T15:30:46.459Z,5.35
2023-04-18T15:33:13.681Z,7.35
2023-04-18T15:35:40.807Z,8.80
2023-04-18T15:38:07.695Z,6.65
2023-04-18T15:40:38.878Z,8.13
2023-04-18T15:43:06.335Z,7.25
2023-04-18T15:45:33.469Z,8.25
2023-04-18T15:48:00.449Z,6.38
2023-04-18T15:50:27.664Z,7.03
2023-04-18T15:52:54.689Z,7.15
2023-04-18T15:55:21.555Z,8.85
2023-04-18T15:57:50.381Z,6.30
2023-04-18T16:00:17.721Z,7.88
2023-04-18T16:02:47.842Z,7.20
2023-04-18T16:05:15.611Z,12.80
2023-04-18T16:07:45.829Z,8.27
2023-04-18T16:10:15.236Z,8.73
2023-04-18T16:12:42.436Z,8.18
2023-04-18T16:15:20.349Z,7.40
2023-04-18T16:17:47.447Z,6.93
2023-04-18T16:20:14.636Z,8.52
2023-04-18T16:22:43.562Z,8.50
2023-04-18T16:25:10.705Z,8.02
2023-04-18T16:27:38.755Z,6.32
2023-04-18T16:30:06.167Z,9.25
2023-04-18T16:32:33.224Z,9.35
2023-04-18T16:35:03.259Z,6.10
2023-04-18T16:37:31.251Z,10.02
2023-04-18T16:39:58.144Z,6.93
2023-04-18T16:42:25.202Z,6.78
2023-04-18T16:44:53.182Z,5.93
2023-04-18T16:47:20.376Z,8.38
2023-04-18T16:49:47.973Z,6.82
2023-04-18T16:52:18.597Z,6.50
2023-04-18T16:54:46.687Z,7.88
2023-04-18T16:57:13.726Z,7.28
2023-04-18T16:59:41.859Z,5.75
2023-04-18T17:02:08.949Z,6.38
2023-04-18T17:04:36.894Z,5.22
2023-04-18T17:07:08.512Z,6.63
2023-04-18T17:09:35.616Z,4.88
2023-04-18T17:12:02.580Z,5.03
2023-04-18T17:14:30.579Z,6.70
2023-04-18T17:16:57.393Z,6.80
2023-04-18T17:19:26.841Z,6.45
2023-04-18T17:21:53.790Z,5.07
2023-04-18T17:24:22.593Z,6.75
2023-04-18T17:26:49.854Z,6.97
2023-04-18T17:29:17.085Z,10.38
2023-04-18T17:31:46.464Z,8.57
2023-04-18T17:34:13.583Z,4.88
2023-04-18T17:36:40.500Z,4.82
2023-04-18T17:39:07.451Z,5.18
2023-04-18T17:41:38.804Z,5.75
2023-04-18T17:44:07.797Z,7.43
2023-04-18T17:46:34.941Z,9.10
2023-04-18T17:49:02.272Z,5.78
2023-04-18T17:51:29.127Z,6.50
2023-04-18T17:53:56.001Z,5.53
2023-04-18T17:56:23.158Z,4.43
2023-04-18T17:58:49.991Z,5.55
2023-04-18T18:01:20.130Z,5.40
2023-04-18T18:03:57.708Z,7.32
2023-04-18T18:06:24.602Z,7.53
2023-04-18T18:08:51.375Z,8.70
2023-04-18T18:11:18.214Z,8.30
2023-04-18T18:13:46.675Z,7.47
2023-04-18T18:16:13.770Z,5.80
2023-04-18T18:18:40.887Z,7.55
2023-04-18T18:21:07.839Z,6.60
2023-04-18T18:23:34.653Z,5.13
2023-04-18T18:26:01.446Z,6.18
2023-04-18T18:28:29.951Z,6.30
2023-04-18T18:30:56.814Z,7.35
2023-04-18T18:33:23.680Z,8.73
2023-04-18T18:35:50.963Z,6.50
2023-04-18T18:38:21.488Z,11.60
2023-04-18T18:40:48.330Z,10.98
2023-04-18T18:43:15.245Z,8.80
2023-04-18T18:45:42.228Z,7.25
2023-04-18T18:48:10.074Z,8.20
2023-04-18T18:50:37.213Z,6.03
2023-04-18T18:53:06.837Z,8.55
2023-04-18T18:55:36.141Z,8.43
2023-04-18T18:58:03.092Z,7.68
2023-04-18T19:00:29.989Z,5.50
2023-04-18T19:02:56.948Z,9.48
2023-04-18T19:05:24.039Z,5.97
2023-04-18T19:07:51.515Z,8.38
2023-04-18T19:10:18.504Z,7.15
2023-04-18T19:12:45.422Z,8.32
2023-04-18T19:15:12.575Z,13.82
2023-04-18T19:17:39.460Z,7.55
2023-04-18T19:20:07.090Z,8.35
2023-04-18T19:22:38.085Z,6.18
2023-04-18T19:25:05.236Z,12.63
2023-04-18T19:27:34.661Z,8.15
2023-04-18T19:30:04.045Z,9.27
2023-04-18T19:32:31.898Z,8.80
2023-04-18T19:34:59.373Z,9.15
2023-04-18T19:37:26.440Z,9.20
2023-04-18T19:39:53.329Z,8.05
2023-04-18T19:42:31.492Z,11.88
2023-04-18T19:45:06.518Z,6.55
2023-04-18T19:47:34.054Z,7.97
2023-04-18T19:50:03.619Z,7.60
2023-04-18T19:52:30.623Z,9.70
2023-04-18T19:55:03.629Z,8.10
2023-04-18T19:57:30.967Z,8.77
2023-04-18T19:59:57.803Z,8.60
2023-04-18T20:02:28.014Z,7.40
2023-04-18T20:04:55.155Z,7.70
2023-04-18T20:07:23.595Z,12.75
2023-04-18T20:09:56.781Z,16.02
2023-04-18T20:12:23.788Z,17.45
2023-04-18T20:14:51.390Z,12.38
2023-04-18T20:17:46.755Z,32.08
2023-04-18T20:24:35.595Z,20.52
2023-04-18T20:27:29.574Z,11.65
2023-04-18T20:30:37.073Z,8.95
2023-04-18T20:49:44.550Z,13.50
2023-04-18T20:52:11.495Z,13.80
2023-04-18T20:54:38.669Z,11.93
2023-04-18T20:57:05.508Z,12.20
2023-04-18T20:59:32.416Z,10.70
2023-04-18T21:01:59.425Z,14.77
2023-04-18T21:04:27.230Z,10.63
2023-04-18T21:06:54.272Z,12.15
2023-04-18T21:09:21.185Z,14.02
2023-04-18T21:11:48.255Z,16.75
2023-04-18T21:14:17.075Z,14.18
2023-04-18T21:16:46.786Z,14.27
2023-04-18T21:19:13.647Z,12.13
2023-04-18T21:21:40.577Z,13.60
2023-04-18T21:24:07.470Z,14.00
2023-04-18T21:26:34.296Z,17.63
2023-04-18T21:29:04.330Z,18.58
2023-04-18T21:31:33.392Z,12.52
2023-04-18T21:34:05.284Z,17.60
2023-04-18T21:36:32.722Z,14.70
2023-04-18T21:39:01.052Z,13.68
2023-04-18T21:41:28.137Z,18.00
2023-04-18T21:43:55.048Z,12.68
2023-04-18T21:46:21.976Z,10.90
2023-04-18T21:48:48.927Z,14.48
2023-04-18T21:51:16.794Z,13.50
2023-04-18T21:53:44.135Z,13.73
2023-04-18T21:56:11.526Z,14.63
2023-04-18T21:58:38.384Z,13.95
2023-04-18T22:01:05.516Z,17.30
2023-04-18T22:03:34.216Z,17.45
2023-04-18T22:06:02.026Z,18.95
2023-04-18T22:08:29.537Z,14.93
2023-04-18T22:10:58.910Z,15.63
2023-04-18T22:13:29.997Z,15.73
2023-04-18T22:15:58.347Z,15.13
2023-04-18T22:18:25.534Z,14.75
2023-04-18T22:20:53.863Z,16.13
2023-04-18T22:23:21.178Z,13.02
2023-04-18T22:25:48.561Z,15.32
2023-04-18T22:28:17.502Z,15.27
2023-04-18T22:30:44.436Z,18.05
2023-04-18T22:33:11.336Z,18.05
2023-04-18T22:35:38.402Z,15.80
2023-04-18T22:38:06.138Z,13.80
2023-04-18T22:40:33.010Z,13.55
2023-04-18T22:42:59.876Z,15.10
2023-04-18T22:45:26.870Z,17.88
2023-04-18T22:47:53.860Z,17.75
2023-04-18T22:50:20.988Z,15.85
2023-04-18T22:52:48.147Z,16.70
2023-04-18T22:55:16.518Z,15.23
2023-04-18T22:57:43.477Z,18.25
2023-04-18T23:00:10.925Z,16.80
2023-04-18T23:02:37.890Z,15.05
2023-04-18T23:05:06.879Z,16.95
2023-04-18T23:07:33.769Z,16.63
2023-04-18T23:10:00.707Z,24.05
2023-04-18T23:12:27.873Z,17.90
2023-04-18T23:14:54.900Z,15.85
2023-04-18T23:17:21.777Z,15.02
2023-04-18T23:19:48.672Z,17.95
2023-04-18T23:22:15.579Z,20.75
2023-04-18T23:24:42.421Z,17.05
2023-04-18T23:27:09.268Z,18.45
2023-04-18T23:29:39.356Z,15.40
2023-04-18T23:32:06.634Z,16.58
2023-04-18T23:34:33.608Z,15.93
2023-04-18T23:37:00.920Z,16.73
2023-04-18T23:39:27.854Z,15.18
2023-04-18T23:41:54.791Z,17.02
2023-04-18T23:44:21.732Z,15.82
2023-04-18T23:46:49.147Z,14.68
2023-04-18T23:49:16.344Z,13.88
2023-04-18T23:51:43.136Z,14.70
2023-04-18T23:54:10.076Z,14.90
2023-04-18T23:56:36.913Z,13.25
2023-04-18T23:59:04.015Z,12.65
